SCSE/LSC METAR and TAF weather

Enter ICAO airport designator
Station Type Date Time Source
SCSE METAR 2020/07/14 06:00 UTC NOAA

SCSE 140600Z AUTO 12004KT 8000 SCT008/// 08/08 Q1016


Station Type Date Time Source
SCSE Decoded METAR 2020/07/14 06:00 UTC NOAA

La Serena, Chile (SCSE) 29-54S 071-12W
Jul 14, 2020 - 02:00 AM EDT / 2020.07.14 0600 UTC
Wind: from the ESE (120 degrees) at 5 MPH (4 KT):0
Visibility: 4 mile(s):0
Sky conditions: partly cloudy
Temperature: 46 F (8 C)
Dew Point: 46 F (8 C)
Relative Humidity: 100%
Pressure (altimeter): 30.00 in. Hg (1016 hPa)
ob: SCSE 140600Z AUTO 12004KT 8000 SCT008/// 08/08 Q1016
cycle: 6

Station Type Date Time Source
SCSE TAF 2020/07/14 06:03 UTC NOAA

TAF TAF SCSE 140400Z 1406/1506 00000KT 9999 SCT010 TX16/1418Z TN07/1409Z
TEMPO 1408/1412 5000 BR BKN008
BECMG 1416/1418 30008KT CAVOK
BECMG 1500/1502 29004KT

Example: see airport list